createdAt,value
2023-05-04T00:00:31.461Z,11.20
2023-05-04T00:05:31.555Z,14.00
2023-05-04T00:10:31.517Z,15.80
2023-05-04T00:15:31.355Z,13.90
2023-05-04T00:20:31.190Z,12.00
2023-05-04T00:25:31.219Z,15.60
2023-05-04T00:30:31.197Z,12.60
2023-05-04T00:35:31.114Z,12.30
2023-05-04T00:40:31.009Z,10.60
2023-05-04T00:45:30.945Z,15.80
2023-05-04T00:50:31.039Z,15.30
2023-05-04T00:55:30.845Z,15.10
2023-05-04T01:00:30.945Z,12.00
2023-05-04T01:05:31.891Z,15.60
2023-05-04T01:10:30.801Z,10.00
2023-05-04T01:15:30.636Z,13.50
2023-05-04T01:20:30.788Z,12.30
2023-05-04T01:25:30.485Z,15.10
2023-05-04T01:30:30.547Z,15.40
2023-05-04T01:35:30.481Z,11.20
2023-05-04T01:40:30.335Z,11.10
2023-05-04T01:45:30.311Z,18.00
2023-05-04T01:50:30.255Z,14.60
2023-05-04T01:55:30.190Z,13.50
2023-05-04T02:00:30.324Z,13.50
2023-05-04T02:05:31.166Z,13.90
2023-05-04T02:10:30.153Z,14.50
2023-05-04T02:15:29.984Z,17.90
2023-05-04T02:20:29.926Z,22.10
2023-05-04T02:25:29.866Z,14.40
2023-05-04T02:30:29.798Z,14.80
2023-05-04T02:35:29.993Z,21.30
2023-05-04T02:40:29.716Z,20.30
2023-05-04T02:45:29.891Z,16.00
2023-05-04T02:50:29.599Z,17.60
2023-05-04T02:55:29.572Z,14.10
2023-05-04T03:00:29.594Z,17.90
2023-05-04T03:05:29.500Z,16.80
2023-05-04T03:10:29.475Z,13.70
2023-05-04T03:15:29.340Z,17.30
2023-05-04T03:20:29.464Z,15.10
2023-05-04T03:25:29.400Z,18.80
2023-05-04T03:30:29.175Z,18.60
2023-05-04T03:35:29.184Z,17.50
2023-05-04T03:40:29.039Z,19.40
2023-05-04T03:45:29.033Z,15.30
2023-05-04T03:50:28.941Z,21.50
2023-05-04T03:55:28.900Z,19.10
2023-05-04T04:00:29.056Z,19.80
2023-05-04T04:05:28.881Z,19.20
2023-05-04T04:10:28.837Z,19.80
2023-05-04T04:15:28.759Z,27.00
2023-05-04T04:20:32.098Z,19.10
2023-05-04T04:25:28.673Z,16.80
2023-05-04T04:30:28.559Z,15.30
2023-05-04T04:35:28.474Z,17.30
2023-05-04T04:40:28.405Z,20.00
2023-05-04T04:45:28.367Z,18.00
2023-05-04T04:50:28.326Z,16.70
2023-05-04T04:55:28.395Z,19.80
2023-05-04T05:00:28.357Z,16.40
2023-05-04T05:05:29.164Z,15.70
2023-05-04T05:10:28.335Z,16.90
2023-05-04T05:15:28.250Z,14.00
2023-05-04T05:20:27.994Z,17.10
2023-05-04T05:25:27.953Z,18.50
2023-05-04T05:30:27.852Z,15.60
2023-05-04T05:35:27.812Z,14.20
2023-05-04T05:40:27.775Z,17.00
2023-05-04T05:45:27.746Z,18.30
2023-05-04T05:50:27.854Z,13.50
2023-05-04T05:55:27.791Z,12.80
2023-05-04T06:00:27.689Z,12.20
2023-05-04T06:05:27.515Z,14.20
2023-05-04T06:10:27.447Z,17.80
2023-05-04T06:15:36.234Z,14.90
2023-05-04T06:20:27.398Z,11.80
2023-05-04T06:25:27.300Z,11.00
2023-05-04T06:30:36.628Z,21.70
2023-05-04T06:35:27.239Z,14.00
2023-05-04T06:40:27.129Z,10.60
2023-05-04T06:45:27.223Z,14.30
2023-05-04T06:50:27.149Z,12.20
2023-05-04T06:55:27.013Z,9.50
2023-05-04T07:00:27.071Z,11.90
2023-05-04T07:05:26.915Z,9.80
2023-05-04T07:10:26.888Z,16.10
2023-05-04T07:15:26.718Z,10.50
2023-05-04T07:20:26.735Z,11.60
2023-05-04T07:25:26.610Z,11.70
2023-05-04T07:30:26.604Z,13.10
2023-05-04T07:35:26.581Z,7.80
2023-05-04T07:40:26.485Z,8.60
2023-05-04T07:45:26.519Z,5.80
2023-05-04T07:50:26.366Z,8.50
2023-05-04T07:55:26.427Z,9.70
2023-05-04T08:00:26.221Z,6.80
2023-05-04T08:05:26.216Z,8.30
2023-05-04T08:10:26.150Z,9.60
2023-05-04T08:15:26.109Z,6.70
2023-05-04T08:20:26.216Z,9.60
2023-05-04T08:25:26.082Z,7.30
2023-05-04T08:30:25.949Z,6.00
2023-05-04T08:35:25.895Z,8.10
2023-05-04T08:40:25.851Z,6.10
2023-05-04T08:45:25.822Z,8.90
2023-05-04T08:50:25.749Z,8.00
2023-05-04T08:55:25.707Z,9.70
2023-05-04T09:00:25.767Z,6.70
2023-05-04T09:05:25.636Z,7.80
2023-05-04T09:10:29.383Z,7.70
2023-05-04T09:15:25.497Z,6.60
2023-05-04T09:20:25.445Z,6.90
2023-05-04T09:25:25.408Z,8.80
2023-05-04T09:30:25.311Z,8.50
2023-05-04T09:35:32.529Z,10.70
2023-05-04T09:40:26.252Z,7.70
2023-05-04T09:45:25.217Z,6.10
2023-05-04T09:50:26.118Z,8.10
2023-05-04T09:55:25.077Z,6.20
2023-05-04T10:00:25.096Z,7.20
2023-05-04T10:05:24.992Z,6.70
2023-05-04T10:10:24.937Z,11.30
2023-05-04T10:15:24.895Z,8.10
2023-05-04T10:20:24.768Z,5.80
2023-05-04T10:25:24.844Z,5.90
2023-05-04T10:30:24.723Z,6.90
2023-05-04T10:35:25.699Z,8.10
2023-05-04T10:40:24.713Z,6.00
2023-05-04T10:45:24.630Z,11.00
2023-05-04T10:50:24.577Z,9.00
2023-05-04T10:55:24.472Z,7.40
2023-05-04T11:00:24.405Z,6.50
2023-05-04T11:05:24.444Z,6.40
2023-05-04T11:10:24.336Z,5.00
2023-05-04T11:15:24.369Z,6.50
2023-05-04T11:20:24.272Z,6.50
2023-05-04T11:25:24.219Z,5.30
2023-05-04T11:30:24.233Z,7.60
2023-05-04T11:35:24.114Z,7.70
2023-05-04T11:40:24.055Z,6.80
2023-05-04T11:45:24.071Z,3.70
2023-05-04T11:50:23.961Z,6.70
2023-05-04T11:55:24.942Z,8.30
2023-05-04T12:00:23.926Z,4.80
2023-05-04T12:05:23.879Z,5.80
2023-05-04T12:10:23.799Z,6.30
2023-05-04T12:15:23.742Z,5.30
2023-05-04T12:20:23.702Z,4.40
2023-05-04T12:25:23.659Z,4.70
2023-05-04T12:30:23.702Z,6.00
2023-05-04T12:35:32.504Z,5.90
2023-05-04T12:40:28.705Z,4.70
2023-05-04T12:45:24.477Z,5.20
2023-05-04T12:50:23.455Z,10.80
2023-05-04T12:55:25.329Z,6.20
2023-05-04T13:00:23.326Z,7.10
2023-05-04T13:05:23.259Z,4.50
2023-05-04T13:10:23.186Z,4.30
2023-05-04T13:15:23.170Z,8.50
2023-05-04T13:20:23.193Z,3.20
2023-05-04T13:25:23.105Z,4.50
2023-05-04T13:30:23.048Z,4.40
2023-05-04T13:35:23.070Z,5.30
2023-05-04T13:40:23.034Z,3.80
2023-05-04T13:45:22.964Z,4.10
2023-05-04T13:50:22.803Z,3.60
2023-05-04T13:55:22.831Z,5.30
2023-05-04T14:00:22.751Z,5.20
2023-05-04T14:05:22.702Z,5.10
2023-05-04T14:10:22.835Z,4.60
2023-05-04T14:15:22.854Z,2.60
2023-05-04T14:20:22.673Z,4.00
2023-05-04T14:25:22.538Z,4.60
2023-05-04T14:30:24.572Z,5.50
2023-05-04T14:35:22.481Z,5.60
2023-05-04T14:40:22.332Z,4.00
2023-05-04T14:45:22.259Z,3.60
2023-05-04T14:50:22.230Z,3.90
2023-05-04T14:55:22.220Z,4.50
2023-05-04T15:00:22.293Z,3.50
2023-05-04T15:05:22.070Z,5.40
2023-05-04T15:10:22.100Z,4.30
2023-05-04T15:15:22.093Z,3.70
2023-05-04T15:20:22.020Z,4.60
2023-05-04T15:25:21.864Z,9.60
2023-05-04T15:30:21.853Z,6.50
2023-05-04T15:35:21.766Z,5.40
2023-05-04T15:40:21.879Z,4.20
2023-05-04T15:45:21.692Z,8.50
2023-05-04T15:50:21.690Z,6.90
2023-05-04T15:55:25.480Z,5.90
2023-05-04T16:00:21.533Z,11.60
2023-05-04T16:05:21.443Z,11.70
2023-05-04T16:10:21.417Z,6.20
2023-05-04T16:15:21.362Z,4.50
2023-05-04T16:20:22.436Z,5.00
2023-05-04T16:25:21.541Z,6.20
2023-05-04T16:30:21.301Z,4.20
2023-05-04T16:35:21.146Z,4.40
2023-05-04T16:40:21.075Z,5.00
2023-05-04T16:45:21.083Z,4.40
2023-05-04T16:50:21.008Z,5.40
2023-05-04T16:55:20.919Z,5.40
2023-05-04T17:00:20.928Z,2.80
2023-05-04T17:05:20.884Z,5.80
2023-05-04T17:10:20.838Z,6.20
2023-05-04T17:15:20.729Z,5.40
2023-05-04T17:20:20.646Z,3.70
2023-05-04T17:25:20.592Z,4.10
2023-05-04T17:30:20.580Z,5.40
2023-05-04T17:35:25.939Z,5.10
2023-05-04T17:40:21.608Z,8.10
2023-05-04T17:45:20.454Z,6.60
2023-05-04T17:50:20.363Z,29.70
2023-05-04T17:55:20.388Z,7.40
2023-05-04T18:00:20.215Z,6.30
2023-05-04T18:05:20.265Z,5.90
2023-05-04T18:10:20.148Z,5.40
2023-05-04T18:15:20.137Z,5.40
2023-05-04T18:20:20.091Z,5.80
2023-05-04T18:25:20.058Z,10.20
2023-05-04T18:30:19.939Z,8.10
2023-05-04T18:35:19.845Z,6.40
2023-05-04T18:40:19.784Z,4.50
2023-05-04T18:45:19.738Z,12.50
2023-05-04T18:50:19.699Z,5.30
2023-05-04T18:55:19.684Z,10.50
2023-05-04T19:00:19.603Z,15.50
2023-05-04T19:05:19.536Z,6.10
2023-05-04T19:10:19.598Z,6.20
2023-05-04T19:15:19.468Z,5.40
2023-05-04T19:20:19.622Z,6.50
2023-05-04T19:25:30.994Z,5.90
2023-05-04T19:30:20.334Z,7.50
2023-05-04T19:35:19.305Z,6.70
2023-05-04T19:40:19.153Z,10.60
2023-05-04T19:45:19.109Z,6.90
2023-05-04T19:50:27.915Z,10.50
2023-05-04T19:55:19.044Z,7.50
2023-05-04T20:00:18.961Z,9.70
2023-05-04T20:05:18.909Z,10.50
2023-05-04T20:10:18.961Z,8.30
2023-05-04T20:15:18.807Z,9.40
2023-05-04T20:20:19.720Z,7.00
2023-05-04T20:25:18.759Z,6.30
2023-05-04T20:30:18.628Z,6.10
2023-05-04T20:35:18.601Z,5.00
2023-05-04T20:40:18.475Z,6.80
2023-05-04T20:45:18.440Z,7.40
2023-05-04T20:50:18.424Z,8.60
2023-05-04T20:55:18.299Z,7.20
2023-05-04T21:00:18.347Z,10.30
2023-05-04T21:05:18.334Z,7.40
2023-05-04T21:10:18.164Z,9.10
2023-05-04T21:15:18.138Z,6.10
2023-05-04T21:20:18.109Z,13.10
2023-05-04T21:25:18.050Z,11.00
2023-05-04T21:30:17.968Z,6.40
2023-05-04T21:35:17.889Z,5.20
2023-05-04T21:40:17.826Z,8.10
2023-05-04T21:45:17.808Z,6.30
2023-05-04T21:50:17.742Z,6.20
2023-05-04T21:55:17.716Z,6.40
2023-05-04T22:00:17.637Z,5.90
2023-05-04T22:05:17.589Z,8.40
2023-05-04T22:10:17.527Z,9.60
2023-05-04T22:15:17.460Z,9.50
2023-05-04T22:20:17.545Z,6.50
2023-05-04T22:25:17.453Z,6.40
2023-05-04T22:30:17.398Z,8.10
2023-05-04T22:35:17.216Z,9.40
2023-05-04T22:40:17.178Z,6.10
2023-05-04T22:45:17.157Z,5.60
2023-05-04T22:50:17.068Z,6.50
2023-05-04T22:55:17.042Z,5.60
2023-05-04T23:00:16.997Z,5.10
2023-05-04T23:05:17.036Z,8.70
2023-05-04T23:10:16.940Z,4.90
2023-05-04T23:15:16.881Z,6.70
2023-05-04T23:20:16.893Z,7.60
2023-05-04T23:25:16.803Z,8.70
2023-05-04T23:30:16.734Z,6.00
2023-05-04T23:35:16.620Z,7.10
2023-05-04T23:40:16.539Z,8.40
2023-05-04T23:45:16.473Z,5.30
2023-05-04T23:50:16.402Z,10.00
2023-05-04T23:55:16.456Z,9.30
